createdAt,value
2022-10-17T00:00:03.022Z,45.5820
2022-10-17T00:00:14.256Z,45.5780
2022-10-17T00:00:25.405Z,45.5720
2022-10-17T00:00:36.605Z,45.5720
2022-10-17T00:00:47.810Z,45.5660
2022-10-17T00:00:59.008Z,45.5660
2022-10-17T00:01:10.164Z,45.5720
2022-10-17T00:01:21.486Z,45.5900
2022-10-17T00:01:32.686Z,45.5900
2022-10-17T00:01:43.892Z,45.5660
2022-10-17T00:01:55.067Z,45.5540
2022-10-17T00:02:06.206Z,45.5420
2022-10-17T00:02:17.405Z,45.5480
2022-10-17T00:02:28.624Z,45.5420
2022-10-17T00:02:39.687Z,45.5420
2022-10-17T00:02:50.765Z,45.5220
2022-10-17T00:03:01.953Z,45.5100
2022-10-17T00:03:13.010Z,45.5160
2022-10-17T00:03:24.074Z,45.4920
2022-10-17T00:03:35.165Z,45.4680
2022-10-17T00:03:46.368Z,45.4800
2022-10-17T00:03:57.566Z,45.4740
2022-10-17T00:04:08.767Z,45.4800
2022-10-17T00:04:19.985Z,45.4860
2022-10-17T00:04:31.075Z,45.4920
2022-10-17T00:04:42.127Z,45.5040
2022-10-17T00:04:53.254Z,45.4890
2022-10-17T00:05:04.473Z,45.5080
2022-10-17T00:05:15.646Z,45.5140
2022-10-17T00:05:26.846Z,45.5200
2022-10-17T00:05:38.045Z,45.5260
2022-10-17T00:05:49.246Z,45.5140
2022-10-17T00:06:00.445Z,45.5080
2022-10-17T00:06:11.646Z,45.5080
2022-10-17T00:06:22.686Z,45.5020
2022-10-17T00:06:33.725Z,45.4980
2022-10-17T00:06:44.938Z,45.5160
2022-10-17T00:06:56.147Z,45.5360
2022-10-17T00:07:07.332Z,45.5220
2022-10-17T00:07:18.549Z,45.5260
2022-10-17T00:07:30.280Z,45.5080
2022-10-17T00:07:41.906Z,45.5500
2022-10-17T00:07:53.085Z,45.5200
2022-10-17T00:08:04.346Z,45.5080
2022-10-17T00:08:15.485Z,45.5260
2022-10-17T00:08:26.686Z,45.5140
2022-10-17T00:08:37.895Z,45.5140
2022-10-17T00:08:49.085Z,45.5140
2022-10-17T00:09:00.285Z,45.5140
2022-10-17T00:09:11.495Z,45.5040
2022-10-17T00:09:22.553Z,45.4920
2022-10-17T00:09:33.633Z,45.4980
2022-10-17T00:09:44.765Z,45.4920
2022-10-17T00:09:55.965Z,45.4800
2022-10-17T00:10:07.175Z,45.4980
2022-10-17T00:10:18.371Z,45.5130
2022-10-17T00:10:29.566Z,45.5250
2022-10-17T00:10:41.127Z,45.5310
2022-10-17T00:10:52.206Z,45.5310
2022-10-17T00:11:03.284Z,45.5250
2022-10-17T00:11:14.371Z,45.5250
2022-10-17T00:11:25.429Z,45.5310
2022-10-17T00:11:36.497Z,45.5070
2022-10-17T00:11:47.664Z,45.5250
2022-10-17T00:11:58.849Z,45.5370
2022-10-17T00:12:10.054Z,45.4740
2022-10-17T00:12:21.246Z,45.4620
2022-10-17T00:12:32.446Z,45.4370
2022-10-17T00:12:43.649Z,45.4620
2022-10-17T00:12:54.845Z,45.4680
2022-10-17T00:13:06.083Z,45.4750
2022-10-17T00:13:17.257Z,45.4690
2022-10-17T00:13:28.382Z,45.4810
2022-10-17T00:13:39.445Z,45.4690
2022-10-17T00:13:50.534Z,45.4450
2022-10-17T00:14:01.737Z,45.4450
2022-10-17T00:14:12.935Z,45.4570
2022-10-17T00:14:24.156Z,45.4390
2022-10-17T00:14:35.325Z,45.4330
2022-10-17T00:14:46.534Z,45.4390
2022-10-17T00:14:57.726Z,45.4270
2022-10-17T00:15:08.933Z,45.4330
2022-10-17T00:15:20.126Z,45.4200
2022-10-17T00:15:31.173Z,45.4020
2022-10-17T00:15:42.222Z,45.4020
2022-10-17T00:15:53.407Z,45.3900
2022-10-17T00:16:04.612Z,45.3840
2022-10-17T00:16:15.813Z,45.3780
2022-10-17T00:16:27.005Z,45.3720
2022-10-17T00:16:38.214Z,45.3600
2022-10-17T00:16:49.413Z,45.3660
2022-10-17T00:17:00.613Z,45.3600
2022-10-17T00:17:11.805Z,45.3540
2022-10-17T00:17:22.847Z,45.3420
2022-10-17T00:17:33.894Z,45.3220
2022-10-17T00:17:45.093Z,45.3220
2022-10-17T00:17:56.316Z,45.3220
2022-10-17T00:18:07.525Z,45.3100
2022-10-17T00:18:18.693Z,45.3160
2022-10-17T00:18:29.902Z,45.2990
2022-10-17T00:18:40.963Z,45.3040
2022-10-17T00:18:52.025Z,45.2870
2022-10-17T00:19:03.174Z,45.2750
2022-10-17T00:19:14.373Z,45.2750
2022-10-17T00:19:25.573Z,45.2690
2022-10-17T00:19:36.765Z,45.2690
2022-10-17T00:19:47.965Z,45.2630
2022-10-17T00:19:59.166Z,45.2430
2022-10-17T00:20:10.365Z,45.2550
2022-10-17T00:20:21.565Z,45.2550
2022-10-17T00:20:32.777Z,45.2550
2022-10-17T00:20:43.844Z,45.2490
2022-10-17T00:20:54.903Z,45.2870
2022-10-17T00:21:06.046Z,45.2810
2022-10-17T00:21:17.252Z,45.2430
2022-10-17T00:21:28.448Z,45.2070
2022-10-17T00:21:39.645Z,45.1970
2022-10-17T00:21:50.853Z,45.2030
2022-10-17T00:22:02.045Z,45.1860
2022-10-17T00:22:13.245Z,45.1860
2022-10-17T00:22:24.458Z,45.1790
2022-10-17T00:22:46.714Z,45.1910
2022-10-17T00:22:57.800Z,45.1560
2022-10-17T00:23:08.955Z,45.1240
2022-10-17T00:23:20.134Z,45.1240
2022-10-17T00:23:31.325Z,45.1180
2022-10-17T00:23:42.533Z,45.1300
2022-10-17T00:23:53.593Z,45.1380
2022-10-17T00:24:04.657Z,45.1180
2022-10-17T00:24:15.805Z,45.1000
2022-10-17T00:24:27.022Z,45.1120
2022-10-17T00:24:38.213Z,45.1180
2022-10-17T00:24:49.414Z,45.1300
2022-10-17T00:25:00.605Z,45.1300
2022-10-17T00:25:11.814Z,45.1500
2022-10-17T00:25:23.012Z,45.1790
2022-10-17T00:25:34.206Z,45.1740
2022-10-17T00:25:45.405Z,45.1740
2022-10-17T00:25:56.605Z,45.1740
2022-10-17T00:26:07.806Z,45.1740
2022-10-17T00:26:19.009Z,45.1500
2022-10-17T00:26:30.108Z,45.1440
2022-10-17T00:26:41.414Z,45.1180
2022-10-17T00:26:52.455Z,45.1380
2022-10-17T00:27:03.536Z,45.1380
2022-10-17T00:27:14.694Z,45.1500
2022-10-17T00:27:26.359Z,45.1620
2022-10-17T00:27:37.776Z,45.1970
2022-10-17T00:27:48.835Z,45.1740
2022-10-17T00:27:59.905Z,45.1560
2022-10-17T00:28:11.043Z,45.1670
2022-10-17T00:28:22.285Z,45.1860
2022-10-17T00:28:33.512Z,45.1910
2022-10-17T00:28:44.658Z,45.2030
2022-10-17T00:28:55.744Z,45.1790
2022-10-17T00:29:06.821Z,45.1910
2022-10-17T00:29:17.887Z,45.1790
2022-10-17T00:29:29.117Z,45.1670
2022-10-17T00:29:40.293Z,45.1740
2022-10-17T00:29:51.488Z,45.1860
2022-10-17T00:30:02.687Z,45.1860
2022-10-17T00:30:13.897Z,45.1790
2022-10-17T00:30:24.944Z,45.1670
2022-10-17T00:30:36.006Z,45.1790
2022-10-17T00:30:47.165Z,45.1790
2022-10-17T00:30:58.372Z,45.1910
2022-10-17T00:31:09.405Z,45.1910
2022-10-17T00:31:20.446Z,45.1790
2022-10-17T00:31:31.656Z,45.1670
2022-10-17T00:31:42.868Z,45.1910
2022-10-17T00:32:05.096Z,45.1910
2022-10-17T00:32:16.165Z,45.1860
2022-10-17T00:32:27.654Z,45.1860
2022-10-17T00:32:39.215Z,45.2230
2022-10-17T00:32:50.376Z,45.1790
2022-10-17T00:33:01.445Z,45.1740
2022-10-17T00:33:12.545Z,45.1560
2022-10-17T00:33:23.683Z,45.1860
2022-10-17T00:33:34.846Z,45.1860
2022-10-17T00:33:46.064Z,45.1860
2022-10-17T00:33:57.106Z,45.2030
2022-10-17T00:34:08.186Z,45.2030
2022-10-17T00:34:19.326Z,45.1860
2022-10-17T00:34:30.525Z,45.2030
2022-10-17T00:34:41.725Z,45.2090
2022-10-17T00:34:52.934Z,45.1970
2022-10-17T00:35:04.125Z,45.1970
2022-10-17T00:35:15.334Z,45.1790
2022-10-17T00:35:26.525Z,45.1670
2022-10-17T00:35:37.726Z,45.1620
2022-10-17T00:35:48.933Z,45.1620
2022-10-17T00:36:00.125Z,45.1440
2022-10-17T00:36:11.325Z,45.1500
2022-10-17T00:36:22.534Z,45.1440
2022-10-17T00:36:33.726Z,45.1500
2022-10-17T00:36:44.925Z,45.1670
2022-10-17T00:36:55.969Z,45.1500
2022-10-17T00:37:07.006Z,45.1380
2022-10-17T00:37:18.206Z,45.1380
2022-10-17T00:37:29.412Z,45.1380
2022-10-17T00:37:40.612Z,45.1300
2022-10-17T00:37:51.807Z,45.1380
2022-10-17T00:38:03.005Z,45.1380
2022-10-17T00:38:14.103Z,45.1180
2022-10-17T00:38:25.197Z,45.1180
2022-10-17T00:38:36.294Z,45.1060
2022-10-17T00:38:47.492Z,45.0880
2022-10-17T00:38:58.685Z,45.1060
2022-10-17T00:39:09.892Z,45.1000
2022-10-17T00:39:21.095Z,45.1060
2022-10-17T00:39:32.295Z,45.1380
2022-10-17T00:39:43.485Z,45.1000
2022-10-17T00:39:54.692Z,45.0710
2022-10-17T00:40:05.885Z,45.0640
2022-10-17T00:40:16.925Z,45.0710
2022-10-17T00:40:27.983Z,45.0760
2022-10-17T00:40:39.174Z,45.0710
2022-10-17T00:40:50.408Z,45.0760
2022-10-17T00:41:01.459Z,45.0820
2022-10-17T00:41:12.506Z,45.0760
2022-10-17T00:41:23.573Z,45.0710
2022-10-17T00:41:34.637Z,45.0710
2022-10-17T00:41:45.725Z,45.0760
2022-10-17T00:41:56.926Z,45.0760
2022-10-17T00:42:08.134Z,45.0760
2022-10-17T00:42:19.335Z,45.0940
2022-10-17T00:42:31.003Z,45.0940
2022-10-17T00:42:42.414Z,45.1240
2022-10-17T00:42:53.568Z,45.0910
2022-10-17T00:43:04.765Z,45.0710
2022-10-17T00:43:15.997Z,45.0640
2022-10-17T00:43:27.054Z,45.0880
2022-10-17T00:43:38.102Z,45.0670
2022-10-17T00:43:49.258Z,45.0550
2022-10-17T00:44:00.455Z,45.0720
2022-10-17T00:44:11.647Z,45.0980
2022-10-17T00:44:22.705Z,45.1160
2022-10-17T00:44:33.814Z,45.0840
2022-10-17T00:44:44.933Z,45.0840
2022-10-17T00:44:56.127Z,45.0840
2022-10-17T00:45:07.325Z,45.1160
2022-10-17T00:45:18.532Z,45.1220
2022-10-17T00:45:29.734Z,45.1220
2022-10-17T00:45:40.926Z,45.1280
2022-10-17T00:45:52.127Z,45.1160
2022-10-17T00:46:03.325Z,45.0980
2022-10-17T00:46:14.534Z,45.0840
2022-10-17T00:46:25.575Z,45.0910
2022-10-17T00:46:36.646Z,45.0910
2022-10-17T00:46:47.813Z,45.0670
2022-10-17T00:46:59.005Z,45.0790
2022-10-17T00:47:10.054Z,45.1220
2022-10-17T00:47:21.112Z,45.1280
2022-10-17T00:47:32.165Z,45.1400
2022-10-17T00:47:43.238Z,45.1340
2022-10-17T00:47:54.373Z,45.1220
2022-10-17T00:48:05.567Z,45.1040
2022-10-17T00:48:21.173Z,45.1040
2022-10-17T00:48:33.775Z,45.3220
2022-10-17T00:48:44.925Z,45.2370
2022-10-17T00:48:56.125Z,45.1890
2022-10-17T00:49:07.336Z,45.1700
2022-10-17T00:49:18.534Z,45.1580
2022-10-17T00:49:29.735Z,45.1830
2022-10-17T00:49:40.933Z,45.1700
2022-10-17T00:49:52.262Z,45.1640
2022-10-17T00:50:03.327Z,45.1580
2022-10-17T00:50:14.534Z,45.1340
2022-10-17T00:50:25.728Z,45.1460
2022-10-17T00:50:36.933Z,45.1460
2022-10-17T00:50:47.983Z,45.1220
2022-10-17T00:50:59.058Z,45.1040
2022-10-17T00:51:10.096Z,45.0910
2022-10-17T00:51:21.174Z,45.0910
2022-10-17T00:51:32.304Z,45.0910
2022-10-17T00:51:43.487Z,45.0720
2022-10-17T00:51:54.688Z,45.0720
2022-10-17T00:52:05.896Z,45.0720
2022-10-17T00:52:17.093Z,45.0670
2022-10-17T00:52:28.709Z,45.0840
2022-10-17T00:52:39.905Z,45.1340
2022-10-17T00:52:51.014Z,45.0910
2022-10-17T00:53:02.205Z,45.0790
2022-10-17T00:53:13.412Z,45.0670
2022-10-17T00:53:24.654Z,45.0370
2022-10-17T00:53:35.703Z,45.0490
2022-10-17T00:53:46.775Z,45.0430
2022-10-17T00:53:57.885Z,45.0430
2022-10-17T00:54:09.094Z,45.0430
2022-10-17T00:54:20.286Z,45.0550
2022-10-17T00:54:31.493Z,45.0430
2022-10-17T00:54:42.685Z,45.0490
2022-10-17T00:54:53.885Z,45.0490
2022-10-17T00:55:05.093Z,45.0490
2022-10-17T00:55:16.255Z,45.0370
2022-10-17T00:55:27.456Z,45.0370
2022-10-17T00:55:38.654Z,45.0190
2022-10-17T00:55:50.527Z,45.0720
2022-10-17T00:56:01.694Z,45.0430
2022-10-17T00:56:12.885Z,45.0370
2022-10-17T00:56:24.096Z,45.0110
2022-10-17T00:56:35.136Z,45.0050
2022-10-17T00:56:46.215Z,44.9640
2022-10-17T00:56:57.365Z,44.9580
2022-10-17T00:57:08.565Z,44.9640
2022-10-17T00:57:19.766Z,44.9930
2022-10-17T00:57:30.965Z,44.9810
2022-10-17T00:57:42.173Z,45.0190
2022-10-17T00:57:53.366Z,45.0050
2022-10-17T00:58:04.565Z,44.9930
2022-10-17T00:58:15.776Z,44.9760
2022-10-17T00:58:27.106Z,44.9520
2022-10-17T00:58:38.165Z,44.9520
2022-10-17T00:58:49.365Z,44.9260
2022-10-17T00:59:00.596Z,44.9340
2022-10-17T00:59:11.774Z,44.9260
2022-10-17T00:59:22.969Z,44.9260
2022-10-17T00:59:34.175Z,44.9200
2022-10-17T00:59:45.396Z,44.9340
2022-10-17T00:59:56.573Z,44.9260
2022-10-17T01:00:07.774Z,44.9140
2022-10-17T01:00:18.975Z,44.9460
2022-10-17T01:00:30.036Z,44.9520
2022-10-17T01:00:41.138Z,44.9810
2022-10-17T01:00:52.254Z,45.0110
2022-10-17T01:01:03.509Z,44.9930
2022-10-17T01:01:14.693Z,44.9760
2022-10-17T01:01:25.905Z,44.9460
2022-10-17T01:01:37.093Z,44.9340
2022-10-17T01:01:48.179Z,44.9400
2022-10-17T01:01:59.244Z,44.9080
2022-10-17T01:02:10.293Z,44.9200
2022-10-17T01:02:21.533Z,44.9080
2022-10-17T01:02:32.734Z,44.9080
2022-10-17T01:02:43.814Z,44.9140
2022-10-17T01:02:54.885Z,44.9080
2022-10-17T01:03:06.014Z,44.9200
2022-10-17T01:03:17.232Z,44.9200
2022-10-17T01:03:28.435Z,44.9140
2022-10-17T01:03:39.623Z,44.9260
2022-10-17T01:03:50.683Z,44.9460
2022-10-17T01:04:01.751Z,44.9520
2022-10-17T01:04:12.911Z,44.9400
2022-10-17T01:04:24.085Z,44.9460
2022-10-17T01:04:35.286Z,44.9400
2022-10-17T01:04:46.485Z,44.9460
2022-10-17T01:04:57.686Z,44.9760
2022-10-17T01:05:08.886Z,44.9700
2022-10-17T01:05:20.093Z,44.9580
2022-10-17T01:05:31.135Z,44.9580
2022-10-17T01:05:42.193Z,44.9520
2022-10-17T01:05:53.373Z,44.9880
2022-10-17T01:06:04.574Z,45.0110
2022-10-17T01:06:15.770Z,45.0050
2022-10-17T01:06:26.966Z,45.0050
2022-10-17T01:06:38.165Z,44.9930
2022-10-17T01:06:49.376Z,44.9760
2022-10-17T01:07:00.563Z,44.9700
2022-10-17T01:07:11.765Z,44.9700
2022-10-17T01:07:22.972Z,44.9460
2022-10-17T01:07:37.145Z,44.9400
2022-10-17T01:07:48.618Z,45.1400
2022-10-17T01:07:59.767Z,45.0370
2022-10-17T01:08:10.973Z,44.9880
2022-10-17T01:08:22.028Z,44.9520
2022-10-17T01:08:33.103Z,44.9140
2022-10-17T01:08:44.257Z,44.8960
2022-10-17T01:08:55.445Z,44.9020
2022-10-17T01:09:06.654Z,44.9020
2022-10-17T01:09:17.853Z,44.9200
2022-10-17T01:09:29.054Z,44.9460
2022-10-17T01:09:40.245Z,44.9580
2022-10-17T01:09:51.446Z,44.9520
2022-10-17T01:10:02.654Z,44.9700
2022-10-17T01:10:13.894Z,44.9260
2022-10-17T01:10:24.935Z,44.9200
2022-10-17T01:10:36.005Z,44.9080
2022-10-17T01:10:47.126Z,44.9140
2022-10-17T01:10:58.327Z,44.9200
2022-10-17T01:11:09.536Z,44.9020
2022-10-17T01:11:20.725Z,44.9080
2022-10-17T01:11:31.895Z,44.9080
2022-10-17T01:11:43.125Z,44.8630
2022-10-17T01:11:54.326Z,44.8940
2022-10-17T01:12:05.534Z,44.8810
2022-10-17T01:12:16.733Z,44.8870
2022-10-17T01:12:28.033Z,44.8870
2022-10-17T01:12:39.166Z,44.9120
2022-10-17T01:12:50.325Z,44.9060
2022-10-17T01:13:01.530Z,44.9120
2022-10-17T01:13:12.734Z,44.8810
2022-10-17T01:13:23.936Z,44.8510
2022-10-17T01:13:35.155Z,44.8450
2022-10-17T01:13:46.356Z,44.8390
2022-10-17T01:13:57.533Z,44.8750
2022-10-17T01:14:08.747Z,44.8570
2022-10-17T01:14:19.803Z,44.8510
2022-10-17T01:14:30.875Z,44.8080
2022-10-17T01:14:42.006Z,44.7760
2022-10-17T01:14:53.232Z,44.7880
2022-10-17T01:15:04.459Z,44.7780
2022-10-17T01:15:15.607Z,44.7840
2022-10-17T01:15:26.812Z,44.7660
2022-10-17T01:15:38.005Z,44.7780
2022-10-17T01:15:49.205Z,44.8270
2022-10-17T01:16:00.415Z,44.7960
2022-10-17T01:16:11.615Z,44.7720
2022-10-17T01:16:22.675Z,44.7300
2022-10-17T01:16:33.758Z,44.7230
2022-10-17T01:16:44.904Z,44.7360
2022-10-17T01:16:56.093Z,44.7540
2022-10-17T01:17:07.285Z,44.7420
2022-10-17T01:17:18.486Z,44.7480
2022-10-17T01:17:29.693Z,44.7540
2022-10-17T01:17:40.885Z,44.7230
2022-10-17T01:17:52.085Z,44.7050
2022-10-17T01:18:03.142Z,44.6930
2022-10-17T01:18:14.198Z,44.6750
2022-10-17T01:18:25.366Z,44.6690
2022-10-17T01:18:36.446Z,44.6750
2022-10-17T01:18:47.516Z,44.6810
2022-10-17T01:18:58.654Z,44.6750
2022-10-17T01:19:09.845Z,44.6770
2022-10-17T01:19:21.087Z,44.6970
2022-10-17T01:19:32.247Z,44.7080
2022-10-17T01:19:43.446Z,44.6970
2022-10-17T01:19:54.646Z,44.6770
2022-10-17T01:20:05.846Z,44.6910
2022-10-17T01:20:17.045Z,44.6970
2022-10-17T01:20:28.245Z,44.6910
2022-10-17T01:20:39.296Z,44.6650
2022-10-17T01:20:50.367Z,44.6650
2022-10-17T01:21:01.543Z,44.6590
2022-10-17T01:21:12.726Z,44.6710
2022-10-17T01:21:23.925Z,44.6710
2022-10-17T01:21:35.134Z,44.6910
2022-10-17T01:21:46.333Z,44.6910
2022-10-17T01:21:57.533Z,44.6830
2022-10-17T01:22:08.727Z,44.7030
2022-10-17T01:22:19.945Z,44.7150
2022-10-17T01:22:31.303Z,44.6970
2022-10-17T01:22:42.706Z,44.7150
2022-10-17T01:22:53.854Z,44.6590
2022-10-17T01:23:05.053Z,44.6690
2022-10-17T01:23:16.253Z,44.6570
2022-10-17T01:23:27.455Z,44.6690
2022-10-17T01:23:38.536Z,44.6770
2022-10-17T01:23:49.765Z,44.6910
2022-10-17T01:24:00.835Z,44.6970
2022-10-17T01:24:11.925Z,44.6970
2022-10-17T01:24:23.125Z,44.6830
2022-10-17T01:24:34.173Z,44.7030
2022-10-17T01:24:45.254Z,44.7150
2022-10-17T01:24:56.405Z,44.7150
2022-10-17T01:25:07.616Z,44.7080
2022-10-17T01:25:18.805Z,44.7260
2022-10-17T01:25:30.006Z,44.7500
2022-10-17T01:25:41.205Z,44.7880
2022-10-17T01:25:52.414Z,44.7880
2022-10-17T01:26:03.605Z,44.7880
2022-10-17T01:26:14.810Z,44.7880
2022-10-17T01:26:26.016Z,44.8050
2022-10-17T01:26:37.077Z,44.8110
2022-10-17T01:26:48.147Z,44.8230
2022-10-17T01:26:59.298Z,44.8050
2022-10-17T01:27:10.343Z,44.8050
2022-10-17T01:27:21.395Z,44.7880
2022-10-17T01:27:32.661Z,44.7930
2022-10-17T01:27:43.765Z,44.7680
2022-10-17T01:27:54.975Z,44.7760
2022-10-17T01:28:06.165Z,44.7930
2022-10-17T01:28:17.378Z,44.7820
2022-10-17T01:28:28.739Z,44.7930
2022-10-17T01:28:40.298Z,44.8170
2022-10-17T01:28:51.406Z,44.8110
2022-10-17T01:29:02.486Z,44.8050
2022-10-17T01:29:13.696Z,44.8050
2022-10-17T01:29:25.255Z,44.8230
2022-10-17T01:29:36.436Z,44.8000
2022-10-17T01:29:47.494Z,44.8000
2022-10-17T01:29:58.569Z,44.7930
2022-10-17T01:30:09.695Z,44.7820
2022-10-17T01:30:20.886Z,44.7880
2022-10-17T01:30:32.136Z,44.7930
2022-10-17T01:30:43.185Z,44.8050
2022-10-17T01:30:54.245Z,44.8050
2022-10-17T01:31:05.303Z,44.7880
2022-10-17T01:31:16.346Z,44.7820
2022-10-17T01:31:27.452Z,44.7760
2022-10-17T01:31:38.647Z,44.7930
2022-10-17T01:31:49.845Z,44.7880
2022-10-17T01:32:00.966Z,44.8000
2022-10-17T01:32:12.065Z,44.7880
2022-10-17T01:32:23.125Z,44.7820
2022-10-17T01:32:34.337Z,44.7560
2022-10-17T01:32:45.378Z,44.7930
2022-10-17T01:32:56.445Z,44.7880
2022-10-17T01:33:07.486Z,44.7760
2022-10-17T01:33:18.545Z,44.7820
2022-10-17T01:33:29.693Z,44.7440
2022-10-17T01:33:40.916Z,44.7500
2022-10-17T01:33:52.113Z,44.7440
2022-10-17T01:34:03.285Z,44.7500
2022-10-17T01:34:14.486Z,44.7620
2022-10-17T01:34:25.720Z,44.7320
2022-10-17T01:34:36.904Z,44.7260
2022-10-17T01:34:48.086Z,44.7320
2022-10-17T01:34:59.285Z,44.7320
2022-10-17T01:35:10.365Z,44.7260
2022-10-17T01:35:21.425Z,44.7030
2022-10-17T01:35:32.565Z,44.6970
2022-10-17T01:35:43.773Z,44.7150
2022-10-17T01:35:54.966Z,44.6830
2022-10-17T01:36:06.139Z,44.6770
2022-10-17T01:36:17.215Z,44.6650
2022-10-17T01:36:28.257Z,44.6530
2022-10-17T01:36:39.454Z,44.6590
2022-10-17T01:36:50.659Z,44.6590
2022-10-17T01:37:01.847Z,44.6710
2022-10-17T01:37:13.054Z,44.6650
2022-10-17T01:37:24.260Z,44.6530
2022-10-17T01:37:35.453Z,44.6650
2022-10-17T01:37:46.720Z,44.6590
2022-10-17T01:37:57.848Z,44.6650
2022-10-17T01:38:09.059Z,44.6470
2022-10-17T01:38:20.117Z,44.6650
2022-10-17T01:38:31.176Z,44.6470
2022-10-17T01:38:42.362Z,44.6530
2022-10-17T01:38:53.413Z,44.6570
2022-10-17T01:39:04.483Z,44.6630
2022-10-17T01:39:15.605Z,44.6630
2022-10-17T01:39:28.103Z,44.7030
2022-10-17T01:39:43.936Z,44.8970
2022-10-17T01:39:56.607Z,44.9760
2022-10-17T01:40:07.647Z,44.8120
2022-10-17T01:40:18.715Z,44.7700
2022-10-17T01:40:29.853Z,44.7400
2022-10-17T01:40:40.915Z,44.7460
2022-10-17T01:40:52.007Z,44.7330
2022-10-17T01:41:03.126Z,44.7330
2022-10-17T01:41:14.177Z,44.7520
2022-10-17T01:41:25.256Z,44.7520
2022-10-17T01:41:36.405Z,44.7640
2022-10-17T01:41:47.606Z,44.7580
2022-10-17T01:41:58.805Z,44.7760
2022-10-17T01:42:10.016Z,44.7880
2022-10-17T01:42:21.091Z,44.7760
2022-10-17T01:42:32.150Z,44.7360
2022-10-17T01:42:43.287Z,44.7230
2022-10-17T01:42:54.493Z,44.7360
2022-10-17T01:43:05.695Z,44.7260
2022-10-17T01:43:16.886Z,44.7200
2022-10-17T01:43:28.085Z,44.7300
2022-10-17T01:43:39.295Z,44.7300
2022-10-17T01:43:50.515Z,44.7170
2022-10-17T01:44:01.686Z,44.7030
2022-10-17T01:44:12.894Z,44.7150
2022-10-17T01:44:23.972Z,44.6970
2022-10-17T01:44:35.039Z,44.6650
2022-10-17T01:44:46.186Z,44.6590
2022-10-17T01:44:57.366Z,44.6590
2022-10-17T01:45:08.589Z,44.6910
2022-10-17T01:45:19.765Z,44.7030
2022-10-17T01:45:30.966Z,44.6650
2022-10-17T01:45:42.165Z,44.6300
2022-10-17T01:45:53.373Z,44.6570
2022-10-17T01:46:04.573Z,44.6630
2022-10-17T01:46:15.778Z,44.6570
2022-10-17T01:46:26.824Z,44.6570
2022-10-17T01:46:37.855Z,44.6440
2022-10-17T01:46:49.077Z,44.6140
2022-10-17T01:47:00.251Z,44.6320
2022-10-17T01:47:11.449Z,44.6200
2022-10-17T01:47:22.646Z,44.6260
2022-10-17T01:47:33.848Z,44.6380
2022-10-17T01:47:45.054Z,44.6410
2022-10-17T01:47:56.245Z,44.5800
2022-10-17T01:48:07.455Z,44.5680
2022-10-17T01:48:18.658Z,44.5620
2022-10-17T01:48:29.715Z,44.5720
2022-10-17T01:48:40.766Z,44.5590
2022-10-17T01:48:51.965Z,44.5350
2022-10-17T01:49:03.125Z,44.5410
2022-10-17T01:49:14.335Z,44.5350
2022-10-17T01:49:25.533Z,44.5410
2022-10-17T01:49:36.725Z,44.5350
2022-10-17T01:49:47.926Z,44.5230
2022-10-17T01:49:59.165Z,44.4930
2022-10-17T01:50:10.325Z,44.5110
2022-10-17T01:50:21.526Z,44.5010
2022-10-17T01:50:32.602Z,44.5390
2022-10-17T01:50:43.656Z,44.5190
2022-10-17T01:50:54.816Z,44.5070
2022-10-17T01:51:06.017Z,44.4720
2022-10-17T01:51:17.206Z,44.4840
2022-10-17T01:51:28.413Z,44.4840
2022-10-17T01:51:39.614Z,44.4780
2022-10-17T01:51:50.808Z,44.4870
2022-10-17T01:52:02.007Z,44.4990
2022-10-17T01:52:13.148Z,44.4870
2022-10-17T01:52:24.192Z,44.5150
2022-10-17T01:52:35.332Z,44.4900
2022-10-17T01:52:46.493Z,44.4980
2022-10-17T01:52:57.535Z,44.4900
2022-10-17T01:53:08.608Z,44.4720
2022-10-17T01:53:19.766Z,44.4900
2022-10-17T01:53:30.966Z,44.5270
2022-10-17T01:53:42.013Z,44.5330
2022-10-17T01:53:53.077Z,44.4980
2022-10-17T01:54:04.245Z,44.4600
2022-10-17T01:54:15.445Z,44.4480
2022-10-17T01:54:26.657Z,44.4480
2022-10-17T01:54:37.847Z,44.4300
2022-10-17T01:54:49.097Z,44.4420
2022-10-17T01:55:00.245Z,44.4370
2022-10-17T01:55:11.445Z,44.4190
2022-10-17T01:55:22.646Z,44.4190
2022-10-17T01:55:33.857Z,44.4130
2022-10-17T01:55:44.945Z,44.4300
2022-10-17T01:56:07.129Z,44.4050
2022-10-17T01:56:18.329Z,44.4190
2022-10-17T01:56:29.527Z,44.4250
2022-10-17T01:56:40.737Z,44.3930
2022-10-17T01:56:51.927Z,44.3750
2022-10-17T01:57:03.127Z,44.3810
2022-10-17T01:57:14.326Z,44.3810
2022-10-17T01:57:25.909Z,44.4050
2022-10-17T01:57:37.384Z,44.4600
2022-10-17T01:57:48.573Z,44.4540
2022-10-17T01:57:59.766Z,44.4480
2022-10-17T01:58:10.806Z,44.4300
2022-10-17T01:58:21.852Z,44.4480
2022-10-17T01:58:33.053Z,44.4660
2022-10-17T01:58:44.103Z,44.4480
2022-10-17T01:58:55.195Z,44.4300
2022-10-17T01:59:06.245Z,44.4130
2022-10-17T01:59:17.296Z,44.3810
2022-10-17T01:59:28.405Z,44.3870
2022-10-17T01:59:39.614Z,44.3870
2022-10-17T01:59:50.656Z,44.3870
2022-10-17T02:00:01.729Z,44.3870
2022-10-17T02:00:12.911Z,44.3810
2022-10-17T02:00:24.085Z,44.3870
2022-10-17T02:00:35.285Z,44.3810
2022-10-17T02:00:46.505Z,44.3870
2022-10-17T02:00:57.589Z,44.3810
2022-10-17T02:01:08.657Z,44.3690
2022-10-17T02:01:19.820Z,44.3750
2022-10-17T02:01:31.089Z,44.3750
2022-10-17T02:01:42.211Z,44.3750
2022-10-17T02:01:53.435Z,44.3810
2022-10-17T02:02:04.454Z,44.3930
2022-10-17T02:02:15.526Z,44.3990
2022-10-17T02:02:26.663Z,44.3810
2022-10-17T02:02:37.846Z,44.3930
2022-10-17T02:02:49.047Z,44.4050
2022-10-17T02:03:00.260Z,44.4250
2022-10-17T02:03:11.454Z,44.4130
2022-10-17T02:03:22.654Z,44.4300
2022-10-17T02:03:33.846Z,44.4190
2022-10-17T02:03:45.045Z,44.3990
2022-10-17T02:03:56.284Z,44.4050
2022-10-17T02:04:07.445Z,44.3930
2022-10-17T02:04:18.647Z,44.3810
2022-10-17T02:04:29.745Z,44.4190
2022-10-17T02:04:40.814Z,44.4190
2022-10-17T02:04:51.969Z,44.4050
2022-10-17T02:05:03.129Z,44.4050
2022-10-17T02:05:14.185Z,44.3990
2022-10-17T02:05:25.255Z,44.3930
2022-10-17T02:05:36.414Z,44.3640
2022-10-17T02:05:47.613Z,44.3520
2022-10-17T02:05:58.805Z,44.3640
2022-10-17T02:06:10.014Z,44.3460
2022-10-17T02:06:21.214Z,44.3640
2022-10-17T02:06:32.407Z,44.3690
2022-10-17T02:06:43.605Z,44.3870
2022-10-17T02:06:54.805Z,44.3870
2022-10-17T02:07:06.017Z,44.3520
2022-10-17T02:07:17.077Z,44.3200
2022-10-17T02:07:28.547Z,44.3020
2022-10-17T02:07:39.946Z,44.3520
2022-10-17T02:07:51.133Z,44.3420
2022-10-17T02:08:02.335Z,44.3520
2022-10-17T02:08:13.413Z,44.3640
2022-10-17T02:08:24.484Z,44.3200
2022-10-17T02:08:35.606Z,44.3200
2022-10-17T02:08:46.818Z,44.3080
2022-10-17T02:08:58.046Z,44.3180
2022-10-17T02:09:09.206Z,44.3300
2022-10-17T02:09:20.407Z,44.3300
2022-10-17T02:09:31.606Z,44.3480
2022-10-17T02:09:42.814Z,44.3300
2022-10-17T02:09:54.013Z,44.3240
2022-10-17T02:10:05.209Z,44.3340
2022-10-17T02:10:16.245Z,44.3340
2022-10-17T02:10:27.297Z,44.3020
2022-10-17T02:10:38.494Z,44.2810
2022-10-17T02:10:49.686Z,44.2940
2022-10-17T02:11:00.889Z,44.2810
2022-10-17T02:11:12.082Z,44.2690
2022-10-17T02:11:23.293Z,44.2510
2022-10-17T02:11:34.485Z,44.2510
2022-10-17T02:11:45.688Z,44.2570
2022-10-17T02:11:56.886Z,44.2450
2022-10-17T02:12:08.094Z,44.2570
2022-10-17T02:12:19.166Z,44.2510
2022-10-17T02:12:30.243Z,44.2330
2022-10-17T02:12:41.368Z,44.2160
2022-10-17T02:12:52.566Z,44.2210
2022-10-17T02:13:03.769Z,44.2120
2022-10-17T02:13:14.966Z,44.1880
2022-10-17T02:13:26.168Z,44.1880
2022-10-17T02:13:37.365Z,44.1820
2022-10-17T02:13:48.573Z,44.1760
2022-10-17T02:13:59.964Z,44.1780
2022-10-17T02:14:22.090Z,44.1960
2022-10-17T02:14:33.163Z,44.2210
2022-10-17T02:14:44.256Z,44.2210
2022-10-17T02:14:55.445Z,44.2160
2022-10-17T02:15:06.655Z,44.2330
2022-10-17T02:15:17.870Z,44.2100
2022-10-17T02:15:29.064Z,44.2450
2022-10-17T02:15:40.246Z,44.2390
2022-10-17T02:15:51.452Z,44.2280
2022-10-17T02:16:02.647Z,44.1900